Nearby METAR Reports

 

KSJC - San Jose, California, USA
Distance from station: NE 9mi, 14km
Updated: Wed, 06-28-2017 11:53am CDT
Few Clouds
Few Clouds
 Wind from calm
Wind: Calm
Temperature: 66°F , 19°C
Dew Point: 54°F , 12°C
Humidity: 64%
Barometer: 29.95 inHg , 1014.2 hPa
Clouds: Few Clouds
Visibility: 10 miles , 16 km
Cloud details: Few Clouds 600 ft
2017/06/28 16:53 KSJC 281653Z 00000KT 10SM FEW006 19/12 A2995 RMK AO2 SLP141 T01940122
KNUQ - Moffett Nas/Mtn, California, USA
Distance from station: N 9mi, 14km
Updated: Wed, 06-28-2017 11:56am CDT
Clear
Clear
 Wind from NNE
Wind: NNE 8 mph , 13 km/h
Temperature: 66°F , 19°C
Dew Point: 55°F , 13°C
Humidity: 68%
Barometer: 29.96 inHg , 1014.6 hPa
Clouds: Clear
Visibility: 10 miles , 16 km
2017/06/28 16:56 KNUQ 281656Z 02007KT 10SM CLR 19/13 A2996 RMK AO2 SLP147 T01940128
 
KPAO - Palo Alto, California, USA
Distance from station: NNW 14mi, 23km
Updated: Wed, 06-28-2017 10:47am CDT
NOT Current
Partly cloudy
Partly cloudy
 Wind from NE
Wind: NE 6 mph , 9 km/h
Temperature: 63°F , 17°C
Dew Point: 55°F , 13°C
Humidity: 77%
Barometer: 29.96 inHg , 1014.6 hPa
Clouds: Partly cloudy
Visibility: 8 miles , 13 km
Cloud details: Partly cloudy 2000 ft
2017/06/28 15:47 KPAO 281547Z 04005KT 8SM SCT020 17/13 A2996
KRHV - San Jose/Reid, California, USA
Distance from station: ENE 12mi, 19km
Updated: Wed, 06-28-2017 10:50am CDT
NOT Current
Few Clouds
Few Clouds
 Wind from varies
Wind: varies 5 mph , 7 km/h
Temperature: 63°F , 17°C
Dew Point: 52°F , 11°C
Humidity: 68%
Barometer: 29.98 inHg , 1015.2 hPa
Clouds: Few Clouds
Visibility: 10 miles , 16 km
Cloud details: Few Clouds 1600 ft
2017/06/28 15:50 KRHV 281550Z VRB04KT 10SM FEW016 17/11 A2998
 
KOAK - Oakland, California, USA
Distance from station: NNW 31mi, 50km
Updated: Wed, 06-28-2017 11:53am CDT
Overcast
Overcast
 Wind from WSW
Wind: WSW 12 mph , 19 km/h
Temperature: 63°F , 17°C
Dew Point: 55°F , 13°C
Humidity: 77%
Barometer: 29.97 inHg , 1014.9 hPa
Clouds: Overcast
Visibility: 10 miles , 16 km
Cloud details: Few Clouds 900 ft
Overcast 1500 ft
2017/06/28 16:53 KOAK 281653Z 25010KT 10SM FEW009 OVC015 17/13 A2997 RMK AO2 SLP147 T01670128
KSQL - San Carlos Airpo, California, USA
Distance from station: NW 21mi, 34km
Updated: Wed, 06-28-2017 11:47am CDT
Few Clouds
Few Clouds
 Wind from varies
Wind: varies 3 mph , 6 km/h
Temperature: 61°F , 16°C
Dew Point: 54°F , 12°C
Humidity: 77%
Barometer: 29.97 inHg , 1014.9 hPa
Clouds: Few Clouds
Visibility: 10 miles , 16 km
Cloud details: Few Clouds 2100 ft
2017/06/28 16:47 KSQL 281647Z VRB03KT 10SM FEW021 16/12 A2997
 
KSFO - San Francisco, California, USA
Distance from station: NW 30mi, 49km
Updated: Wed, 06-28-2017 11:56am CDT
Mostly cloudy
Mostly cloudy
 Wind from W
Wind: W 12 mph , 19 km/h
Temperature: 59°F , 15°C
Dew Point: 52°F , 11°C
Humidity: 77%
Barometer: 29.96 inHg , 1014.6 hPa
Clouds: Mostly cloudy
Visibility: 10 miles , 16 km
Cloud details: Mostly cloudy 900 ft
Mostly cloudy 1100 ft
2017/06/28 16:56 KSFO 281656Z 26010KT 10SM BKN009 BKN011 15/11 A2996 RMK AO2 SLP146 T01500111
KE16 - San Martin, California, USA
Distance from station: ESE 27mi, 43km
Updated: Wed, 06-28-2017 12:15pm CDT
Overcast
Overcast
 Wind from ESE
Wind: ESE 5 mph , 7 km/h
Temperature: 61°F , 16°C
Dew Point: 54°F , 12°C
Humidity: 77%
Barometer: 29.98 inHg , 1015.2 hPa
Clouds: Overcast
Visibility: 10 miles , 16 km
Cloud details: Overcast 1300 ft
2017/06/28 17:15 KE16 281715Z AUTO 11004KT 10SM OVC013 16/12 A2998 RMK AO2
 
KWVI - Watsonville, California, USA
Distance from station: SSE 27mi, 44km
Updated: Wed, 06-28-2017 11:53am CDT
Overcast
Overcast
 Wind from varies
Wind: varies 3 mph , 6 km/h
Temperature: 57°F , 14°C
Dew Point: 55°F , 13°C
Humidity: 94%
Barometer: 29.98 inHg , 1015.2 hPa
Clouds: Overcast
Visibility: 10 miles , 16 km
Cloud details: Overcast 700 ft
2017/06/28 16:53 KWVI 281653Z AUTO VRB03KT 10SM OVC007 14/13 A2998 RMK AO2 SLP150 T01440133
KHAF - Half Moon Bay, California, USA
Distance from station: WNW 31mi, 50km
Updated: Wed, 06-28-2017 12:15pm CDT
Mist, Overcast
Mist, Overcast
 Wind from WNW
Wind: WNW 6 mph , 9 km/h
Temperature: 55°F , 13°C
Dew Point: 54°F , 12°C
Humidity: 94%
Barometer: 29.99 inHg , 1015.6 hPa
Summary: Mist
Clouds: Overcast
Visibility: 4 miles , 6 km
Cloud details: Overcast 600 ft
2017/06/28 17:15 KHAF 281715Z AUTO 29005KT 4SM BR OVC006 13/12 A2999 RMK AO2
 
KHWD - Hayward, California, USA
Distance from station: N 28mi, 44km
Updated: Wed, 06-28-2017 11:54am CDT
Mostly cloudy
Mostly cloudy
 Wind from W
Wind: W 5 mph , 7 km/h
Temperature: 63°F , 17°C
Dew Point: 52°F , 11°C
Humidity: 68%
Barometer: 29.96 inHg , 1014.6 hPa
Clouds: Mostly cloudy
Visibility: 10 miles , 16 km
Cloud details: Mostly cloudy 1600 ft
2017/06/28 16:54 KHWD 281654Z 28004KT 10SM BKN016 17/11 A2996 RMK AO2 SLP153 T01720106
KLVK - Livermore, California, USA
Distance from station: NNE 31mi, 51km
Updated: Wed, 06-28-2017 11:53am CDT
Clear
Clear
 Wind from W
Wind: W 7 mph , 11 km/h
Temperature: 64°F , 18°C
Dew Point: 54°F , 12°C
Humidity: 68%
Barometer: 29.93 inHg , 1013.5 hPa
Clouds: Clear
Visibility: 10 miles , 16 km
2017/06/28 16:53 KLVK 281653Z 27006KT 10SM CLR 18/12 A2993 RMK AO2 SLP134 T01830117